createdAt,value
2023-01-09T00:01:32.078Z,79.39
2023-01-09T00:04:58.720Z,79.35
2023-01-09T00:08:25.445Z,79.50
2023-01-09T00:11:55.184Z,79.60
2023-01-09T00:15:22.026Z,79.39
2023-01-09T00:18:48.963Z,79.52
2023-01-09T00:22:15.888Z,79.53
2023-01-09T00:25:44.968Z,79.54
2023-01-09T00:29:13.849Z,79.35
2023-01-09T00:32:42.270Z,79.34
2023-01-09T00:36:12.057Z,79.34
2023-01-09T00:39:39.606Z,79.24
2023-01-09T00:43:08.004Z,79.24
2023-01-09T00:46:39.012Z,79.26
2023-01-09T00:50:15.182Z,79.25
2023-01-09T00:53:44.566Z,79.24
2023-01-09T00:57:13.680Z,79.11
2023-01-09T01:00:40.923Z,79.23
2023-01-09T01:04:21.797Z,79.46
2023-01-09T01:07:49.225Z,79.62
2023-01-09T01:11:16.005Z,79.54
2023-01-09T01:14:42.653Z,79.40
2023-01-09T01:18:10.058Z,79.61
2023-01-09T01:21:37.265Z,79.44
2023-01-09T01:25:04.349Z,79.45
2023-01-09T01:28:31.416Z,79.54
2023-01-09T01:31:58.173Z,79.41
2023-01-09T01:35:26.966Z,79.73
2023-01-09T01:38:53.765Z,79.30
2023-01-09T01:42:20.574Z,79.28
2023-01-09T01:45:47.596Z,79.32
2023-01-09T01:49:16.741Z,79.24
2023-01-09T01:52:46.118Z,79.08
2023-01-09T01:56:19.254Z,79.13
2023-01-09T01:59:51.384Z,79.13
2023-01-09T02:03:24.343Z,79.26
2023-01-09T02:06:54.948Z,79.27
2023-01-09T02:10:23.813Z,79.36
2023-01-09T02:13:51.171Z,79.32
2023-01-09T02:17:32.000Z,79.23
2023-01-09T02:21:03.058Z,79.25
2023-01-09T02:24:56.570Z,79.44
2023-01-09T02:28:53.959Z,79.26
2023-01-09T02:32:36.023Z,79.54
2023-01-09T02:36:11.983Z,79.47
2023-01-09T02:39:48.757Z,79.53
2023-01-09T02:43:17.673Z,79.49
2023-01-09T02:46:44.528Z,79.36
2023-01-09T02:50:20.122Z,79.17
2023-01-09T02:54:11.219Z,79.16
2023-01-09T02:57:55.885Z,79.12
2023-01-09T03:01:32.665Z,79.37
2023-01-09T03:05:08.753Z,79.08
2023-01-09T03:08:41.455Z,79.16
2023-01-09T03:12:13.390Z,79.06
2023-01-09T03:15:43.861Z,79.05
2023-01-09T03:19:15.224Z,79.24
2023-01-09T03:22:47.502Z,79.30
2023-01-09T03:26:15.086Z,79.22
2023-01-09T03:29:41.775Z,79.31
2023-01-09T03:33:08.907Z,79.48
2023-01-09T03:36:36.017Z,79.50
2023-01-09T03:40:02.451Z,79.46
2023-01-09T03:43:28.952Z,79.30
2023-01-09T03:46:55.643Z,79.20
2023-01-09T03:50:22.066Z,79.13
2023-01-09T03:53:48.918Z,79.19
2023-01-09T03:57:16.049Z,79.11
2023-01-09T04:00:42.602Z,78.96
2023-01-09T04:04:09.098Z,78.88
2023-01-09T04:07:35.949Z,78.85
2023-01-09T04:11:03.099Z,78.72
2023-01-09T04:14:30.148Z,78.80
2023-01-09T04:17:56.748Z,78.73
2023-01-09T04:21:23.178Z,78.83
2023-01-09T04:24:50.022Z,79.00
2023-01-09T04:28:16.895Z,78.92
2023-01-09T04:31:43.641Z,79.02
2023-01-09T04:35:12.529Z,79.09
2023-01-09T04:38:39.226Z,78.91
2023-01-09T04:42:06.033Z,79.18
2023-01-09T04:45:32.491Z,79.22
2023-01-09T04:48:58.829Z,79.36
2023-01-09T04:52:25.380Z,79.31
2023-01-09T04:55:52.047Z,79.06
2023-01-09T04:59:18.816Z,78.94
2023-01-09T05:02:45.827Z,78.89
2023-01-09T05:06:13.139Z,78.65
2023-01-09T05:09:40.054Z,78.66
2023-01-09T05:13:07.682Z,78.79
2023-01-09T05:16:35.235Z,78.54
2023-01-09T05:20:02.181Z,78.72
2023-01-09T05:23:29.097Z,78.76
2023-01-09T05:26:55.803Z,78.89
2023-01-09T05:30:26.487Z,78.99
2023-01-09T05:33:53.438Z,78.88
2023-01-09T05:37:20.335Z,78.93
2023-01-09T05:40:46.724Z,78.84
2023-01-09T05:44:13.891Z,79.06
2023-01-09T05:47:40.983Z,78.93
2023-01-09T05:51:07.753Z,78.95
2023-01-09T05:54:35.900Z,79.03
2023-01-09T05:58:02.823Z,78.94
2023-01-09T06:01:29.977Z,78.82
2023-01-09T06:04:57.208Z,78.87
2023-01-09T06:08:23.724Z,78.76
2023-01-09T06:11:51.008Z,78.91
2023-01-09T06:15:21.215Z,78.60
2023-01-09T06:18:47.694Z,78.89
2023-01-09T06:22:14.005Z,78.93
2023-01-09T06:25:40.736Z,78.74
2023-01-09T06:29:08.480Z,78.74
2023-01-09T06:32:35.150Z,79.00
2023-01-09T06:36:01.873Z,78.78
2023-01-09T06:39:28.647Z,78.80
2023-01-09T06:42:55.426Z,78.76
2023-01-09T06:46:24.506Z,79.05
2023-01-09T06:49:51.983Z,78.95
2023-01-09T06:53:18.820Z,78.86
2023-01-09T06:56:45.443Z,78.74
2023-01-09T07:00:15.607Z,78.84
2023-01-09T07:03:42.506Z,78.74
2023-01-09T07:07:10.691Z,78.91
2023-01-09T07:10:37.482Z,78.77
2023-01-09T07:14:04.609Z,78.70
2023-01-09T07:17:33.521Z,78.47
2023-01-09T07:21:00.420Z,78.29
2023-01-09T07:24:30.522Z,78.43
2023-01-09T07:27:57.742Z,78.39
2023-01-09T07:31:28.643Z,78.11
2023-01-09T07:34:56.678Z,78.36
2023-01-09T07:38:23.620Z,78.46
2023-01-09T07:41:49.965Z,78.58
2023-01-09T07:45:17.115Z,78.50
2023-01-09T07:48:43.445Z,78.58
2023-01-09T07:52:10.146Z,78.45
2023-01-09T07:55:36.589Z,78.55
2023-01-09T07:59:03.330Z,78.77
2023-01-09T08:02:32.490Z,78.63
2023-01-09T08:06:03.687Z,78.42
2023-01-09T08:09:31.105Z,78.58
2023-01-09T08:12:58.194Z,78.44
2023-01-09T08:16:28.518Z,78.44
2023-01-09T08:19:55.988Z,78.66
2023-01-09T08:23:27.804Z,78.50
2023-01-09T08:26:56.878Z,78.48
2023-01-09T08:30:25.104Z,78.43
2023-01-09T08:33:54.068Z,78.52
2023-01-09T08:37:24.383Z,78.63
2023-01-09T08:40:54.111Z,78.87
2023-01-09T08:44:51.776Z,78.82
2023-01-09T08:48:20.375Z,78.91
2023-01-09T08:51:46.678Z,78.88
2023-01-09T08:55:13.954Z,79.00
2023-01-09T08:58:40.834Z,78.98
2023-01-09T09:02:07.853Z,79.25
2023-01-09T09:05:36.009Z,79.36
2023-01-09T09:09:03.676Z,79.58
2023-01-09T09:12:30.713Z,79.28
2023-01-09T09:15:57.593Z,79.39
2023-01-09T09:19:25.630Z,79.43
2023-01-09T09:22:52.799Z,79.48
2023-01-09T09:26:19.568Z,79.39
2023-01-09T09:29:46.583Z,79.24
2023-01-09T09:33:13.503Z,79.07
2023-01-09T09:36:41.398Z,78.94
2023-01-09T09:40:19.105Z,78.97
2023-01-09T09:44:21.471Z,78.88
2023-01-09T09:47:56.094Z,79.00
2023-01-09T09:51:46.241Z,78.97
2023-01-09T09:55:22.471Z,79.20
2023-01-09T09:58:52.933Z,79.23
2023-01-09T10:02:29.737Z,79.04
2023-01-09T10:05:59.645Z,79.26
2023-01-09T10:09:37.666Z,79.36
2023-01-09T10:13:26.932Z,79.24
2023-01-09T10:17:11.667Z,79.11
2023-01-09T10:20:56.818Z,79.13
2023-01-09T10:24:36.826Z,79.03
2023-01-09T10:28:28.615Z,79.07
2023-01-09T10:32:12.120Z,79.10
2023-01-09T10:35:48.400Z,79.17
2023-01-09T10:39:23.308Z,78.89
2023-01-09T10:42:56.047Z,79.03
2023-01-09T10:46:28.053Z,78.98
2023-01-09T10:49:57.069Z,79.06
2023-01-09T10:53:28.385Z,78.94
2023-01-09T10:57:00.357Z,78.85
2023-01-09T11:00:27.999Z,78.93
2023-01-09T11:03:54.551Z,78.79
2023-01-09T11:07:24.648Z,78.85
2023-01-09T11:10:53.801Z,79.02
2023-01-09T11:14:28.901Z,79.18
2023-01-09T11:17:56.570Z,79.12
2023-01-09T11:21:36.151Z,79.26
2023-01-09T11:25:06.679Z,79.32
2023-01-09T11:28:35.875Z,79.03
2023-01-09T11:32:03.393Z,79.05
2023-01-09T11:35:34.431Z,79.17
2023-01-09T11:39:04.026Z,79.39
2023-01-09T11:42:49.355Z,79.19
2023-01-09T11:46:33.502Z,79.19
2023-01-09T11:50:09.181Z,78.95
2023-01-09T11:53:51.460Z,79.09
2023-01-09T11:57:19.970Z,78.81
2023-01-09T12:00:56.864Z,78.95
2023-01-09T12:04:29.890Z,78.98
2023-01-09T12:08:06.167Z,79.12
2023-01-09T12:11:43.651Z,79.23
2023-01-09T12:15:24.921Z,79.32
2023-01-09T12:19:05.597Z,79.25
2023-01-09T12:22:40.424Z,79.23
2023-01-09T12:26:17.778Z,79.28
2023-01-09T12:30:01.028Z,79.40
2023-01-09T12:33:38.730Z,79.38
2023-01-09T12:37:26.402Z,79.50
2023-01-09T12:41:23.172Z,79.64
2023-01-09T12:44:56.676Z,79.15
2023-01-09T12:48:38.381Z,79.11
2023-01-09T12:52:11.914Z,79.11
2023-01-09T12:55:41.048Z,79.24
2023-01-09T12:59:30.943Z,79.16
2023-01-09T13:03:12.398Z,78.96
2023-01-09T13:06:46.980Z,79.04
2023-01-09T13:10:26.275Z,78.96
2023-01-09T13:13:59.279Z,79.02
2023-01-09T13:17:31.668Z,78.88
2023-01-09T13:21:00.048Z,78.97
2023-01-09T13:24:33.358Z,79.46
2023-01-09T13:28:06.379Z,79.44
2023-01-09T13:31:51.300Z,79.26
2023-01-09T13:35:19.032Z,79.44
2023-01-09T13:38:58.243Z,79.28
2023-01-09T13:42:46.159Z,79.27
2023-01-09T13:46:16.275Z,79.10
2023-01-09T13:50:02.005Z,79.00
2023-01-09T13:53:51.085Z,79.14
2023-01-09T13:57:30.341Z,79.20
2023-01-09T14:01:08.725Z,79.04
2023-01-09T14:04:46.325Z,78.90
2023-01-09T14:08:19.737Z,78.82
2023-01-09T14:11:49.068Z,78.73
2023-01-09T14:15:31.209Z,78.92
2023-01-09T14:19:04.198Z,78.87
2023-01-09T14:22:42.508Z,79.05
2023-01-09T14:26:23.436Z,78.95
2023-01-09T14:29:52.072Z,78.86
2023-01-09T14:33:32.935Z,78.90
2023-01-09T14:37:02.883Z,78.99
2023-01-09T14:40:30.576Z,79.06
2023-01-09T14:44:03.065Z,78.97
2023-01-09T14:47:38.113Z,78.97
2023-01-09T14:51:08.769Z,78.97
2023-01-09T14:54:39.347Z,79.05
2023-01-09T14:58:21.324Z,79.08
2023-01-09T15:01:55.559Z,79.13
2023-01-09T15:05:27.177Z,78.98
2023-01-09T15:09:02.937Z,78.77
2023-01-09T15:12:30.855Z,78.86
2023-01-09T15:15:57.792Z,78.79
2023-01-09T15:19:26.260Z,78.79
2023-01-09T15:22:55.505Z,78.65
2023-01-09T15:26:29.873Z,78.63
2023-01-09T15:30:02.653Z,78.78
2023-01-09T15:33:30.064Z,78.77
2023-01-09T15:36:58.891Z,78.79
2023-01-09T15:40:33.221Z,78.95
2023-01-09T15:44:00.111Z,78.66
2023-01-09T15:47:30.017Z,78.90
2023-01-09T15:51:02.899Z,79.13
2023-01-09T15:54:33.775Z,79.25
2023-01-09T15:58:03.863Z,79.42
2023-01-09T16:01:33.963Z,79.31
2023-01-09T16:05:09.282Z,79.27
2023-01-09T16:08:42.750Z,79.19
2023-01-09T16:12:21.654Z,78.89
2023-01-09T16:15:50.592Z,78.96
2023-01-09T16:19:34.451Z,78.88
2023-01-09T16:23:03.859Z,78.98
2023-01-09T16:26:32.753Z,78.83
2023-01-09T16:30:01.373Z,78.93
2023-01-09T16:33:31.595Z,79.01
2023-01-09T16:37:01.351Z,78.92
2023-01-09T16:40:39.209Z,79.24
2023-01-09T16:44:10.995Z,79.05
2023-01-09T16:47:38.986Z,79.33
2023-01-09T16:51:07.512Z,79.32
2023-01-09T16:54:39.301Z,79.36
2023-01-09T16:58:06.598Z,79.30
2023-01-09T17:01:35.413Z,79.56
2023-01-09T17:05:04.182Z,79.37
2023-01-09T17:08:35.142Z,79.22
2023-01-09T17:12:04.388Z,79.25
2023-01-09T17:15:38.682Z,79.43
2023-01-09T17:19:08.966Z,79.27
2023-01-09T17:22:38.053Z,79.26
2023-01-09T17:26:24.079Z,79.11
2023-01-09T17:29:51.695Z,79.10
2023-01-09T17:33:20.850Z,79.02
2023-01-09T17:36:48.361Z,79.13
2023-01-09T17:40:24.523Z,78.98
2023-01-09T17:43:52.543Z,78.77
2023-01-09T17:47:20.390Z,79.03
2023-01-09T17:50:52.690Z,79.12
2023-01-09T17:54:21.394Z,79.21
2023-01-09T17:57:48.386Z,79.26
2023-01-09T18:01:17.645Z,79.30
2023-01-09T18:04:45.216Z,79.39
2023-01-09T18:08:14.614Z,79.50
2023-01-09T18:11:43.877Z,79.49
2023-01-09T18:15:12.112Z,79.39
2023-01-09T18:18:40.568Z,79.31
2023-01-09T18:22:07.148Z,79.48
2023-01-09T18:25:40.732Z,79.23
2023-01-09T18:29:07.791Z,79.35
2023-01-09T18:32:48.703Z,79.28
2023-01-09T18:36:16.897Z,79.32
2023-01-09T18:39:44.911Z,79.12
2023-01-09T18:43:16.640Z,79.19
2023-01-09T18:46:47.490Z,79.19
2023-01-09T18:50:15.246Z,79.13
2023-01-09T18:53:41.824Z,79.12
2023-01-09T18:57:08.697Z,79.22
2023-01-09T19:00:35.662Z,79.31
2023-01-09T19:04:03.393Z,79.23
2023-01-09T19:07:31.196Z,79.59
2023-01-09T19:11:00.278Z,79.66
2023-01-09T19:14:27.347Z,79.56
2023-01-09T19:17:54.068Z,79.80
2023-01-09T19:21:22.442Z,79.63
2023-01-09T19:24:49.441Z,79.73
2023-01-09T19:28:16.429Z,79.81
2023-01-09T19:31:45.314Z,79.78
2023-01-09T19:35:12.449Z,79.61
2023-01-09T19:38:39.803Z,79.88
2023-01-09T19:42:08.804Z,79.85
2023-01-09T19:45:35.941Z,79.79
2023-01-09T19:49:05.051Z,79.95
2023-01-09T19:52:32.591Z,79.93
2023-01-09T19:56:09.662Z,79.63
2023-01-09T19:59:40.112Z,79.53
2023-01-09T20:03:07.679Z,79.71
2023-01-09T20:06:39.590Z,79.75
2023-01-09T20:10:09.175Z,79.64
2023-01-09T20:13:35.795Z,79.70
2023-01-09T20:17:04.558Z,79.79
2023-01-09T20:20:32.933Z,79.70
2023-01-09T20:24:02.229Z,79.69
2023-01-09T20:27:28.889Z,79.82
2023-01-09T20:31:00.582Z,79.83
2023-01-09T20:34:28.297Z,79.99
2023-01-09T20:37:56.128Z,80.12
2023-01-09T20:41:26.862Z,80.17
2023-01-09T20:44:54.252Z,80.34
2023-01-09T20:48:21.618Z,80.39
2023-01-09T20:51:50.979Z,80.49
2023-01-09T20:55:18.192Z,80.47
2023-01-09T20:58:45.331Z,80.49
2023-01-09T21:02:16.056Z,80.40
2023-01-09T21:05:44.712Z,80.42
2023-01-09T21:09:11.461Z,80.39
2023-01-09T21:12:38.765Z,80.57
2023-01-09T21:16:09.808Z,80.68
2023-01-09T21:19:37.862Z,80.48
2023-01-09T21:23:04.674Z,80.34
2023-01-09T21:26:32.069Z,80.01
2023-01-09T21:29:59.630Z,80.15
2023-01-09T21:33:26.836Z,79.76
2023-01-09T21:36:54.294Z,79.80
2023-01-09T21:40:21.704Z,79.82
2023-01-09T21:44:06.111Z,79.97
2023-01-09T21:47:34.691Z,79.84
2023-01-09T21:51:05.028Z,79.98
2023-01-09T21:54:33.617Z,80.13
2023-01-09T21:58:01.410Z,80.28
2023-01-09T22:01:35.707Z,80.33
2023-01-09T22:05:02.944Z,80.20
2023-01-09T22:08:33.437Z,80.07
2023-01-09T22:12:02.216Z,80.09
2023-01-09T22:15:30.391Z,80.26
2023-01-09T22:19:01.713Z,80.27
2023-01-09T22:22:29.777Z,80.20
2023-01-09T22:25:56.805Z,80.42
2023-01-09T22:29:23.807Z,80.39
2023-01-09T22:32:51.023Z,79.99
2023-01-09T22:36:18.812Z,79.83
2023-01-09T22:39:46.307Z,79.97
2023-01-09T22:43:16.663Z,79.85
2023-01-09T22:46:44.478Z,79.83
2023-01-09T22:50:13.859Z,79.61
2023-01-09T22:53:41.024Z,79.50
2023-01-09T22:57:08.190Z,79.59
2023-01-09T23:00:35.728Z,79.45
2023-01-09T23:04:04.069Z,79.66
2023-01-09T23:07:32.554Z,79.80
2023-01-09T23:11:07.595Z,79.71
2023-01-09T23:14:37.954Z,79.78
2023-01-09T23:18:05.267Z,79.78
2023-01-09T23:21:32.482Z,79.68
2023-01-09T23:25:00.457Z,79.25
2023-01-09T23:28:28.624Z,79.31
2023-01-09T23:31:56.740Z,78.89
2023-01-09T23:35:25.352Z,78.74
2023-01-09T23:38:54.493Z,78.54
2023-01-09T23:42:39.418Z,78.48
2023-01-09T23:46:06.467Z,78.31
2023-01-09T23:49:32.964Z,78.24
2023-01-09T23:53:00.431Z,78.35
2023-01-09T23:56:28.919Z,78.12
2023-01-09T23:59:55.120Z,78.18
